Time;durP1;ratioP1;P1;durP2;ratioP2;P2;SDS_P1;SDS_P2;PMS_P1;PMS_P2;Temp;Humidity;BMP_temperature;BMP_pressure;BME280_temperature;BME280_humidity;BME280_pressure;Samples;Min_cycle;Max_cycle;Signal;HPM_P1;HPM_P2
2021/05/14 00:01:42;;;;;;;;;;;21.30;45.20;;;;;;457294;260;1130;-75
2021/05/14 00:03:44;;;;;;;;;;;21.20;45.10;;;;;;457327;260;2159;-76
2021/05/14 00:05:45;;;;;;;;;;;21.30;45.20;;;;;;457336;260;1239;-75
2021/05/14 00:07:47;;;;;;;;;;;21.20;45.30;;;;;;457415;260;1177;-75
2021/05/14 00:09:48;;;;;;;;;;;21.10;45.30;;;;;;457352;260;1471;-75
2021/05/14 00:11:49;;;;;;;;;;;21.10;45.20;;;;;;457378;260;1195;-75
2021/05/14 00:13:53;;;;;;;;;;;21.10;45.20;;;;;;457441;260;1118;-76
2021/05/14 00:15:51;;;;;;;;;;;21.20;45.20;;;;;;457265;260;1241;-76
2021/05/14 00:17:53;;;;;;;;;;;21.20;45.10;;;;;;457555;257;1115;-76
2021/05/14 00:19:54;;;;;;;;;;;21.30;45.00;;;;;;457363;260;1176;-76
2021/05/14 00:21:55;;;;;;;;;;;21.20;45.00;;;;;;457228;260;1160;-75
2021/05/14 00:23:56;;;;;;;;;;;21.20;45.10;;;;;;457312;260;2198;-76
2021/05/14 00:25:58;;;;;;;;;;;21.20;45.10;;;;;;457257;260;1245;-75
2021/05/14 00:27:59;;;;;;;;;;;21.20;45.00;;;;;;457265;260;1105;-75
2021/05/14 00:30:00;;;;;;;;;;;21.20;45.00;;;;;;457381;260;1079;-76
2021/05/14 00:32:02;;;;;;;;;;;21.20;44.90;;;;;;457331;260;1207;-76
2021/05/14 00:34:03;;;;;;;;;;;21.20;44.90;;;;;;457425;260;1188;-75
2021/05/14 00:36:04;;;;;;;;;;;21.20;44.80;;;;;;457451;260;1192;-76
2021/05/14 00:38:05;;;;;;;;;;;21.10;44.90;;;;;;457372;260;1072;-75
2021/05/14 00:40:07;;;;;;;;;;;21.00;45.00;;;;;;457426;260;1064;-75
2021/05/14 00:42:08;;;;;;;;;;;21.00;45.00;;;;;;457332;260;1049;-75
2021/05/14 00:44:09;;;;;;;;;;;21.00;45.10;;;;;;457375;260;2194;-75
2021/05/14 00:46:11;;;;;;;;;;;21.00;45.00;;;;;;457322;260;1186;-75
2021/05/14 00:48:12;;;;;;;;;;;21.00;45.00;;;;;;457386;260;1067;-75
2021/05/14 00:50:13;;;;;;;;;;;21.10;45.00;;;;;;457305;260;1215;-75
2021/05/14 00:52:15;;;;;;;;;;;21.10;44.90;;;;;;457322;260;1156;-75
2021/05/14 00:54:16;;;;;;;;;;;21.10;44.80;;;;;;457319;260;1516;-75
2021/05/14 00:56:17;;;;;;;;;;;21.10;44.80;;;;;;457315;260;1139;-75
2021/05/14 00:58:19;;;;;;;;;;;21.10;44.70;;;;;;457309;260;1093;-75
2021/05/14 01:00:20;;;;;;;;;;;21.10;44.70;;;;;;457325;260;1040;-76
2021/05/14 01:02:21;;;;;;;;;;;21.20;44.70;;;;;;457358;260;1167;-76
2021/05/14 01:04:23;;;;;;;;;;;21.10;44.60;;;;;;457393;260;2217;-76
2021/05/14 01:06:24;;;;;;;;;;;21.10;44.70;;;;;;457375;260;1311;-76
2021/05/14 01:08:25;;;;;;;;;;;21.10;44.70;;;;;;457418;260;963;-76
2021/05/14 01:10:26;;;;;;;;;;;21.00;44.60;;;;;;457367;260;1004;-76
2021/05/14 01:12:28;;;;;;;;;;;21.00;44.60;;;;;;457355;260;1116;-76
2021/05/14 01:14:29;;;;;;;;;;;21.00;44.70;;;;;;457433;260;1082;-76
2021/05/14 01:16:30;;;;;;;;;;;21.10;44.60;;;;;;457355;260;1296;-76
2021/05/14 01:18:31;;;;;;;;;;;21.00;44.50;;;;;;457345;260;957;-75
2021/05/14 01:20:33;;;;;;;;;;;21.10;44.60;;;;;;457365;260;1191;-75
2021/05/14 01:22:34;;;;;;;;;;;21.10;44.50;;;;;;457314;257;1293;-75
2021/05/14 01:24:35;;;;;;;;;;;21.10;44.40;;;;;;457436;260;2206;-76
2021/05/14 01:26:37;;;;;;;;;;;21.10;44.40;;;;;;457264;260;1364;-75
2021/05/14 01:28:38;;;;;;;;;;;21.10;44.30;;;;;;457376;260;1147;-76
2021/05/14 01:30:39;;;;;;;;;;;21.10;44.30;;;;;;457458;260;1184;-75
2021/05/14 01:32:40;;;;;;;;;;;21.10;44.30;;;;;;457402;260;1168;-76
2021/05/14 01:34:42;;;;;;;;;;;21.10;44.30;;;;;;457449;260;1141;-75
2021/05/14 01:36:43;;;;;;;;;;;21.10;44.10;;;;;;457370;260;1179;-75
2021/05/14 01:38:44;;;;;;;;;;;21.10;44.10;;;;;;457423;260;1104;-76
2021/05/14 01:40:46;;;;;;;;;;;21.10;44.20;;;;;;457483;256;1145;-75
2021/05/14 01:42:48;;;;;;;;;;;21.10;44.10;;;;;;457402;260;1066;-76
2021/05/14 01:44:49;;;;;;;;;;;21.10;44.20;;;;;;457313;260;2225;-75
2021/05/14 01:46:50;;;;;;;;;;;21.10;44.00;;;;;;457220;260;1243;-75
2021/05/14 01:48:51;;;;;;;;;;;21.20;44.00;;;;;;457308;260;1294;-75
2021/05/14 01:50:53;;;;;;;;;;;21.20;43.90;;;;;;457242;260;1245;-76
2021/05/14 01:52:54;;;;;;;;;;;21.10;44.00;;;;;;457306;257;1182;-75
2021/05/14 01:54:55;;;;;;;;;;;21.10;44.00;;;;;;457377;260;1069;-75
2021/05/14 01:56:57;;;;;;;;;;;21.00;43.90;;;;;;457323;260;1373;-76
2021/05/14 01:58:58;;;;;;;;;;;21.10;44.00;;;;;;457460;260;1219;-76
2021/05/14 02:00:59;;;;;;;;;;;21.00;44.00;;;;;;457411;260;1233;-75
2021/05/14 02:03:00;;;;;;;;;;;21.00;44.00;;;;;;457348;260;1167;-75
2021/05/14 02:05:02;;;;;;;;;;;21.00;43.90;;;;;;457468;260;2206;-75
2021/05/14 02:07:03;;;;;;;;;;;21.20;43.90;;;;;;457353;260;1241;-76
2021/05/14 02:09:04;;;;;;;;;;;21.10;43.80;;;;;;457300;260;1156;-76
2021/05/14 02:11:09;;;;;;;;;;;21.10;43.70;;;;;;457264;260;1348;-76
2021/05/14 02:13:07;;;;;;;;;;;21.10;43.70;;;;;;457196;260;1423;-75
2021/05/14 02:15:08;;;;;;;;;;;21.10;43.60;;;;;;457338;260;1020;-75
2021/05/14 02:17:10;;;;;;;;;;;21.10;43.70;;;;;;457317;255;1218;-76
2021/05/14 02:19:13;;;;;;;;;;;21.10;43.60;;;;;;457378;260;1065;-75
2021/05/14 02:21:12;;;;;;;;;;;21.10;43.50;;;;;;457373;260;1422;-75
2021/05/14 02:23:13;;;;;;;;;;;21.10;43.50;;;;;;457372;260;1159;-75
2021/05/14 02:25:15;;;;;;;;;;;21.20;43.50;;;;;;457444;260;2198;-75
2021/05/14 02:27:16;;;;;;;;;;;21.10;43.50;;;;;;457341;260;1209;-75
2021/05/14 02:29:17;;;;;;;;;;;21.20;43.40;;;;;;457428;260;1098;-75
2021/05/14 02:31:19;;;;;;;;;;;21.10;43.40;;;;;;457391;260;1142;-75
2021/05/14 02:33:20;;;;;;;;;;;21.10;43.30;;;;;;457327;260;1177;-75
2021/05/14 02:35:21;;;;;;;;;;;21.10;43.30;;;;;;457362;260;1072;-76
2021/05/14 02:37:22;;;;;;;;;;;21.10;43.20;;;;;;457270;260;1247;-76
2021/05/14 02:39:24;;;;;;;;;;;21.10;43.20;;;;;;457340;260;1337;-76
2021/05/14 02:41:25;;;;;;;;;;;21.10;43.10;;;;;;457321;260;1262;-75
2021/05/14 02:43:26;;;;;;;;;;;21.10;43.00;;;;;;457420;260;1059;-76
2021/05/14 02:45:27;;;;;;;;;;;21.20;43.00;;;;;;457308;256;2205;-75
2021/05/14 02:47:29;;;;;;;;;;;21.20;42.90;;;;;;457390;260;1157;-76
2021/05/14 02:49:30;;;;;;;;;;;21.20;42.80;;;;;;457419;260;1066;-75
2021/05/14 02:51:32;;;;;;;;;;;21.20;42.80;;;;;;457369;260;1144;-75
2021/05/14 02:53:33;;;;;;;;;;;21.10;42.70;;;;;;457378;260;1248;-75
2021/05/14 02:55:34;;;;;;;;;;;21.10;42.70;;;;;;457380;260;1097;-75
2021/05/14 02:57:35;;;;;;;;;;;21.20;42.70;;;;;;457451;260;1081;-76
2021/05/14 02:59:36;;;;;;;;;;;21.10;42.60;;;;;;457456;260;961;-76
2021/05/14 03:01:38;;;;;;;;;;;21.20;42.60;;;;;;457336;260;1072;-75
2021/05/14 03:03:39;;;;;;;;;;;21.20;42.50;;;;;;457340;260;1032;-76
2021/05/14 03:05:40;;;;;;;;;;;21.10;42.50;;;;;;457293;260;2202;-75
2021/05/14 03:07:42;;;;;;;;;;;21.10;42.50;;;;;;457448;260;1156;-75
2021/05/14 03:09:43;;;;;;;;;;;21.10;42.50;;;;;;457377;260;989;-75
2021/05/14 03:11:44;;;;;;;;;;;21.10;42.40;;;;;;457365;260;1250;-75
2021/05/14 03:13:45;;;;;;;;;;;21.10;42.40;;;;;;457400;260;1078;-76
2021/05/14 03:15:47;;;;;;;;;;;21.10;42.30;;;;;;457408;260;1246;-76
2021/05/14 03:17:48;;;;;;;;;;;21.10;42.30;;;;;;457415;260;1178;-76
2021/05/14 03:19:49;;;;;;;;;;;21.10;42.30;;;;;;457499;260;1069;-76
2021/05/14 03:21:50;;;;;;;;;;;21.10;42.20;;;;;;457419;260;1235;-76
2021/05/14 03:23:52;;;;;;;;;;;21.10;42.20;;;;;;457498;260;2210;-75
2021/05/14 03:25:53;;;;;;;;;;;21.10;42.20;;;;;;457421;260;1140;-76
2021/05/14 03:27:54;;;;;;;;;;;21.10;42.00;;;;;;457363;260;1225;-76
2021/05/14 03:29:56;;;;;;;;;;;21.10;42.00;;;;;;457386;260;1038;-75
2021/05/14 03:31:57;;;;;;;;;;;21.10;41.90;;;;;;457341;260;1059;-76
2021/05/14 03:33:58;;;;;;;;;;;21.10;42.10;;;;;;457313;260;1079;-75
2021/05/14 03:35:59;;;;;;;;;;;21.10;42.10;;;;;;457378;260;1082;-75
2021/05/14 03:38:01;;;;;;;;;;;21.10;42.00;;;;;;457334;260;1361;-76
2021/05/14 03:40:05;;;;;;;;;;;21.00;41.90;;;;;;457385;260;1210;-76
2021/05/14 03:42:12;;;;;;;;;;;21.10;41.90;;;;;;457239;256;1342;-76
2021/05/14 03:44:07;;;;;;;;;;;21.00;41.80;;;;;;457012;260;2206;-76
2021/05/14 03:46:08;;;;;;;;;;;21.00;41.90;;;;;;457349;260;1123;-76
2021/05/14 03:48:18;;;;;;;;;;;21.00;41.70;;;;;;457435;260;1097;-76
2021/05/14 03:50:19;;;;;;;;;;;21.10;41.70;;;;;;457471;260;1064;-76
2021/05/14 03:52:20;;;;;;;;;;;21.00;41.70;;;;;;457336;260;1137;-76
2021/05/14 03:54:22;;;;;;;;;;;21.00;41.60;;;;;;457412;260;1312;-76
2021/05/14 03:56:23;;;;;;;;;;;21.10;41.50;;;;;;457285;260;1111;-76
2021/05/14 03:58:24;;;;;;;;;;;21.10;41.50;;;;;;457320;260;1089;-76
2021/05/14 04:00:26;;;;;;;;;;;21.00;41.50;;;;;;457283;260;1254;-76
2021/05/14 04:02:27;;;;;;;;;;;21.00;41.40;;;;;;457350;260;1077;-75
2021/05/14 04:04:28;;;;;;;;;;;21.00;41.50;;;;;;457316;260;2214;-76
2021/05/14 04:06:29;;;;;;;;;;;21.00;41.50;;;;;;457360;260;1255;-76
2021/05/14 04:08:31;;;;;;;;;;;21.00;41.50;;;;;;457330;260;1194;-76
2021/05/14 04:10:46;;;;;;;;;;;21.00;41.40;;;;;;457436;260;1182;-76
2021/05/14 04:14:53;;;;;;;;;;;21.00;41.20;;;;;;471423;252;1136;-76
2021/05/14 04:16:54;;;;;;;;;;;20.90;41.30;;;;;;454390;262;1101;-76
2021/05/14 04:18:56;;;;;;;;;;;20.90;41.30;;;;;;454593;261;1020;-76
2021/05/14 04:20:57;;;;;;;;;;;20.90;41.30;;;;;;454420;261;1066;-76
2021/05/14 04:22:58;;;;;;;;;;;20.90;41.30;;;;;;454342;257;1348;-76
2021/05/14 04:24:59;;;;;;;;;;;20.90;41.30;;;;;;454349;261;2204;-76
2021/05/14 04:27:01;;;;;;;;;;;20.90;41.20;;;;;;454390;261;1064;-76
2021/05/14 04:29:02;;;;;;;;;;;20.90;41.30;;;;;;454415;261;1050;-76
2021/05/14 04:31:03;;;;;;;;;;;20.90;41.10;;;;;;454374;261;1037;-76
2021/05/14 04:33:05;;;;;;;;;;;20.90;41.00;;;;;;454399;261;1186;-75
2021/05/14 04:35:06;;;;;;;;;;;21.00;41.10;;;;;;454433;257;1277;-76
2021/05/14 04:37:07;;;;;;;;;;;20.90;41.00;;;;;;454451;261;1179;-76
2021/05/14 04:39:08;;;;;;;;;;;20.90;41.00;;;;;;454402;261;1317;-76
2021/05/14 04:41:10;;;;;;;;;;;21.00;41.00;;;;;;454391;261;1217;-76
2021/05/14 04:43:11;;;;;;;;;;;20.90;41.00;;;;;;454417;261;1121;-76
2021/05/14 04:45:12;;;;;;;;;;;20.90;41.00;;;;;;454413;261;2216;-76
2021/05/14 04:47:14;;;;;;;;;;;20.90;40.80;;;;;;454322;261;1172;-76
2021/05/14 04:49:15;;;;;;;;;;;21.00;40.80;;;;;;458678;258;1069;-75
2021/05/14 04:51:16;;;;;;;;;;;21.00;40.80;;;;;;454311;258;1357;-76
2021/05/14 04:53:18;;;;;;;;;;;21.00;40.70;;;;;;454335;261;1143;-76
2021/05/14 04:55:19;;;;;;;;;;;21.00;40.60;;;;;;454339;261;1505;-76
2021/05/14 04:57:20;;;;;;;;;;;21.00;40.60;;;;;;454325;261;1149;-75
2021/05/14 04:59:21;;;;;;;;;;;21.00;40.70;;;;;;454450;261;993;-76
2021/05/14 05:01:23;;;;;;;;;;;21.00;40.60;;;;;;454414;261;1403;-75
2021/05/14 05:03:24;;;;;;;;;;;21.00;40.60;;;;;;454398;261;1055;-76
2021/05/14 05:05:25;;;;;;;;;;;21.00;40.60;;;;;;454541;261;2203;-76
2021/05/14 05:07:27;;;;;;;;;;;21.00;40.70;;;;;;454527;261;1135;-76
2021/05/14 05:09:28;;;;;;;;;;;21.00;40.70;;;;;;454407;261;1174;-77
2021/05/14 05:11:29;;;;;;;;;;;21.00;40.60;;;;;;454460;261;1068;-76
2021/05/14 05:13:30;;;;;;;;;;;21.00;40.60;;;;;;454446;261;1015;-76
2021/05/14 05:15:32;;;;;;;;;;;20.90;40.60;;;;;;454383;261;1126;-75
2021/05/14 05:17:33;;;;;;;;;;;21.00;40.60;;;;;;454349;261;1089;-75
2021/05/14 05:19:34;;;;;;;;;;;20.90;40.50;;;;;;458696;258;1063;-75
2021/05/14 05:21:36;;;;;;;;;;;21.00;40.50;;;;;;454347;261;1064;-75
2021/05/14 05:23:37;;;;;;;;;;;21.10;40.40;;;;;;454314;261;1050;-76
2021/05/14 05:25:38;;;;;;;;;;;21.10;40.20;;;;;;454379;261;2208;-76
2021/05/14 05:27:39;;;;;;;;;;;21.10;40.20;;;;;;454389;261;1264;-76
2021/05/14 05:29:41;;;;;;;;;;;21.10;40.20;;;;;;458749;258;1105;-76
2021/05/14 05:31:42;;;;;;;;;;;21.10;40.20;;;;;;454371;261;1138;-76
2021/05/14 05:33:43;;;;;;;;;;;21.00;40.20;;;;;;454422;261;1064;-75
2021/05/14 05:35:44;;;;;;;;;;;21.00;40.20;;;;;;454411;258;1283;-76
2021/05/14 05:37:46;;;;;;;;;;;21.00;40.30;;;;;;454351;261;1240;-76
2021/05/14 05:39:47;;;;;;;;;;;21.00;40.40;;;;;;454395;261;1177;-76
2021/05/14 05:41:49;;;;;;;;;;;21.00;40.40;;;;;;454288;261;1423;-75
2021/05/14 05:43:50;;;;;;;;;;;21.00;40.30;;;;;;454334;261;1078;-76
2021/05/14 05:45:51;;;;;;;;;;;21.10;40.30;;;;;;454300;261;2375;-76
2021/05/14 05:47:52;;;;;;;;;;;21.10;40.10;;;;;;454456;261;1073;-76
2021/05/14 05:49:54;;;;;;;;;;;21.10;40.20;;;;;;454299;261;1103;-76
2021/05/14 05:51:55;;;;;;;;;;;21.00;40.20;;;;;;454127;261;1571;-76
2021/05/14 05:53:56;;;;;;;;;;;21.10;40.10;;;;;;454322;261;1076;-76
2021/05/14 05:55:57;;;;;;;;;;;21.10;40.20;;;;;;454271;261;1228;-76
2021/05/14 05:57:59;;;;;;;;;;;21.10;40.10;;;;;;454275;261;1054;-76
2021/05/14 06:00:00;;;;;;;;;;;21.10;40.10;;;;;;454280;261;1097;-75
2021/05/14 06:02:01;;;;;;;;;;;21.10;40.10;;;;;;454215;261;1082;-75
2021/05/14 06:04:03;;;;;;;;;;;21.10;40.10;;;;;;454183;261;1065;-76
2021/05/14 06:06:04;;;;;;;;;;;21.10;40.10;;;;;;454221;261;2207;-75
2021/05/14 06:08:05;;;;;;;;;;;21.10;40.10;;;;;;454223;261;1054;-75
2021/05/14 06:10:06;;;;;;;;;;;21.10;40.10;;;;;;454203;261;1174;-76
2021/05/14 06:12:08;;;;;;;;;;;21.10;40.10;;;;;;454216;261;1077;-75
2021/05/14 06:14:09;;;;;;;;;;;21.10;40.00;;;;;;454238;261;1146;-76
2021/05/14 06:16:10;;;;;;;;;;;21.10;40.00;;;;;;454191;261;1052;-76
2021/05/14 06:18:12;;;;;;;;;;;21.00;40.10;;;;;;454228;261;1054;-76
2021/05/14 06:20:16;;;;;;;;;;;21.10;40.20;;;;;;458610;258;1155;-76
2021/05/14 06:22:14;;;;;;;;;;;21.10;40.10;;;;;;454214;262;1303;-76
2021/05/14 06:24:15;;;;;;;;;;;21.10;40.10;;;;;;454329;261;1133;-76
2021/05/14 06:26:17;;;;;;;;;;;21.10;40.10;;;;;;458575;258;2193;-76
2021/05/14 06:28:18;;;;;;;;;;;21.10;40.20;;;;;;458589;258;1079;-76
2021/05/14 06:30:19;;;;;;;;;;;21.10;40.20;;;;;;454325;261;1246;-75
2021/05/14 06:32:21;;;;;;;;;;;21.10;40.20;;;;;;454281;261;1064;-76
2021/05/14 06:34:22;;;;;;;;;;;21.10;40.20;;;;;;458491;258;1078;-76
2021/05/14 06:36:23;;;;;;;;;;;21.10;40.20;;;;;;454106;261;1105;-75
2021/05/14 06:38:24;;;;;;;;;;;21.10;40.20;;;;;;457101;260;1240;-75
2021/05/14 06:40:26;;;;;;;;;;;21.20;40.20;;;;;;457123;260;1214;-76
2021/05/14 06:42:28;;;;;;;;;;;21.20;40.20;;;;;;457045;260;1091;-76
2021/05/14 06:44:29;;;;;;;;;;;21.20;40.20;;;;;;457088;260;1366;-76
2021/05/14 06:46:30;;;;;;;;;;;21.20;40.10;;;;;;457080;260;2210;-76
2021/05/14 06:48:31;;;;;;;;;;;21.20;40.30;;;;;;457139;260;1069;-76
2021/05/14 06:50:33;;;;;;;;;;;21.30;40.20;;;;;;457197;260;1109;-75
2021/05/14 06:52:34;;;;;;;;;;;21.20;40.20;;;;;;457156;260;1108;-76
2021/05/14 06:54:35;;;;;;;;;;;21.10;40.30;;;;;;457224;260;1093;-75
2021/05/14 06:56:37;;;;;;;;;;;21.20;40.40;;;;;;457181;260;1183;-76
2021/05/14 06:58:38;;;;;;;;;;;21.10;40.30;;;;;;457184;260;1090;-76
2021/05/14 07:00:39;;;;;;;;;;;21.10;40.40;;;;;;457116;260;1091;-75
2021/05/14 07:02:40;;;;;;;;;;;21.20;40.30;;;;;;457030;260;1213;-76
2021/05/14 07:04:42;;;;;;;;;;;21.20;40.30;;;;;;457211;260;1081;-75
2021/05/14 07:06:43;;;;;;;;;;;21.10;40.30;;;;;;457151;260;2198;-75
2021/05/14 07:08:44;;;;;;;;;;;21.10;40.50;;;;;;457015;260;1240;-76
2021/05/14 07:10:45;;;;;;;;;;;21.00;40.60;;;;;;457054;260;1179;-76
2021/05/14 07:12:47;;;;;;;;;;;21.00;40.60;;;;;;457128;260;1068;-76
2021/05/14 07:14:48;;;;;;;;;;;21.10;40.70;;;;;;457151;260;1197;-76
2021/05/14 07:16:50;;;;;;;;;;;21.10;40.60;;;;;;457163;260;1046;-76
2021/05/14 07:18:51;;;;;;;;;;;21.10;40.60;;;;;;457134;260;1456;-76
2021/05/14 07:20:52;;;;;;;;;;;21.10;40.50;;;;;;457069;260;1145;-76
2021/05/14 07:22:54;;;;;;;;;;;21.10;40.60;;;;;;457020;260;1069;-76
2021/05/14 07:24:55;;;;;;;;;;;21.10;40.80;;;;;;457120;260;1034;-76
2021/05/14 07:26:56;;;;;;;;;;;21.10;40.80;;;;;;457053;260;2217;-75
2021/05/14 07:28:57;;;;;;;;;;;21.10;40.80;;;;;;457085;260;1063;-75
2021/05/14 07:30:59;;;;;;;;;;;21.10;40.80;;;;;;457062;260;1036;-76
2021/05/14 07:33:00;;;;;;;;;;;21.10;41.00;;;;;;457052;260;1073;-76
2021/05/14 07:35:01;;;;;;;;;;;21.00;41.00;;;;;;457106;260;1066;-76
2021/05/14 07:37:02;;;;;;;;;;;21.00;41.10;;;;;;457105;260;1090;-76
2021/05/14 07:39:04;;;;;;;;;;;21.00;41.20;;;;;;457188;260;1264;-76
2021/05/14 07:41:07;;;;;;;;;;;21.00;41.10;;;;;;457227;260;1070;-76
2021/05/14 07:43:06;;;;;;;;;;;21.00;41.00;;;;;;457102;260;1397;-75
2021/05/14 07:45:08;;;;;;;;;;;21.00;41.00;;;;;;457274;260;1047;-76
2021/05/14 07:47:09;;;;;;;;;;;21.10;41.00;;;;;;457178;260;2170;-76
2021/05/14 07:49:10;;;;;;;;;;;21.10;41.00;;;;;;457131;260;1133;-76
2021/05/14 07:51:11;;;;;;;;;;;21.10;41.10;;;;;;457119;260;1085;-76
2021/05/14 07:53:13;;;;;;;;;;;21.10;41.00;;;;;;457118;260;1125;-75
2021/05/14 07:55:14;;;;;;;;;;;21.10;40.90;;;;;;457127;260;1107;-75
2021/05/14 07:57:15;;;;;;;;;;;21.00;41.00;;;;;;457157;260;1158;-76
2021/05/14 07:59:16;;;;;;;;;;;21.10;41.00;;;;;;457091;260;1107;-76
2021/05/14 08:01:18;;;;;;;;;;;21.10;40.80;;;;;;457127;260;1149;-75
2021/05/14 08:03:19;;;;;;;;;;;21.10;40.80;;;;;;457086;260;1238;-75
2021/05/14 08:05:20;;;;;;;;;;;21.10;41.00;;;;;;457176;260;1032;-76
2021/05/14 08:07:22;;;;;;;;;;;21.00;41.00;;;;;;457186;260;2206;-75
2021/05/14 08:09:24;;;;;;;;;;;21.00;41.00;;;;;;457189;260;1033;-75
2021/05/14 08:11:24;;;;;;;;;;;21.00;41.00;;;;;;457250;260;1584;-75
2021/05/14 08:13:25;;;;;;;;;;;21.00;41.10;;;;;;457217;260;1235;-75
2021/05/14 08:15:27;;;;;;;;;;;21.10;41.20;;;;;;457165;260;992;-76
2021/05/14 08:17:28;;;;;;;;;;;21.10;41.20;;;;;;457220;260;1135;-75
2021/05/14 08:19:29;;;;;;;;;;;21.00;41.30;;;;;;457139;260;1061;-76
2021/05/14 08:21:31;;;;;;;;;;;21.00;41.30;;;;;;457139;260;1102;-76
2021/05/14 08:23:32;;;;;;;;;;;21.10;41.40;;;;;;457168;260;1034;-76
2021/05/14 08:25:35;;;;;;;;;;;21.00;41.40;;;;;;457098;260;2206;-76
2021/05/14 08:27:34;;;;;;;;;;;21.00;41.50;;;;;;457056;260;1417;-75
2021/05/14 08:29:37;;;;;;;;;;;21.00;41.50;;;;;;457040;260;995;-75
2021/05/14 08:31:39;;;;;;;;;;;21.00;41.50;;;;;;457039;260;1455;-76
2021/05/14 08:33:39;;;;;;;;;;;21.00;41.50;;;;;;457106;260;1461;-76
2021/05/14 08:35:40;;;;;;;;;;;21.00;41.50;;;;;;457166;255;1209;-75
2021/05/14 08:37:42;;;;;;;;;;;21.00;41.40;;;;;;457113;260;1112;-75
2021/05/14 08:39:43;;;;;;;;;;;21.00;41.40;;;;;;457123;260;1074;-76
2021/05/14 08:41:44;;;;;;;;;;;21.00;41.30;;;;;;457085;256;1166;-75
2021/05/14 08:43:45;;;;;;;;;;;21.10;41.10;;;;;;457150;260;1159;-75
2021/05/14 08:45:47;;;;;;;;;;;21.00;41.30;;;;;;457112;260;2159;-76
2021/05/14 08:47:48;;;;;;;;;;;21.00;41.40;;;;;;457100;260;1144;-75
2021/05/14 08:49:49;;;;;;;;;;;21.00;41.50;;;;;;457115;260;1016;-76
2021/05/14 08:51:52;;;;;;;;;;;21.00;41.40;;;;;;457047;260;1286;-75
2021/05/14 08:53:52;;;;;;;;;;;21.00;41.50;;;;;;457118;260;1647;-76
2021/05/14 08:55:53;;;;;;;;;;;20.90;41.50;;;;;;457064;260;1155;-76
2021/05/14 08:57:54;;;;;;;;;;;20.90;41.50;;;;;;457302;260;1319;-76
2021/05/14 08:59:56;;;;;;;;;;;20.90;41.40;;;;;;457219;260;1124;-75
2021/05/14 09:01:57;;;;;;;;;;;20.90;41.60;;;;;;457267;260;1252;-76
2021/05/14 09:03:58;;;;;;;;;;;20.90;41.70;;;;;;457121;260;1051;-75
2021/05/14 09:05:59;;;;;;;;;;;21.00;41.50;;;;;;457128;260;2202;-76
2021/05/14 09:08:01;;;;;;;;;;;20.90;41.60;;;;;;457266;260;1259;-76
2021/05/14 09:10:02;;;;;;;;;;;21.00;41.50;;;;;;457164;260;1089;-75
2021/05/14 09:12:03;;;;;;;;;;;21.00;41.60;;;;;;457178;260;1188;-76
2021/05/14 09:14:04;;;;;;;;;;;21.10;41.50;;;;;;457189;260;1216;-76
2021/05/14 09:16:06;;;;;;;;;;;21.10;41.50;;;;;;457113;260;1192;-76
2021/05/14 09:18:07;;;;;;;;;;;21.20;41.30;;;;;;457153;260;1114;-75
2021/05/14 09:20:08;;;;;;;;;;;21.20;41.10;;;;;;457117;260;1102;-76
2021/05/14 09:22:10;;;;;;;;;;;21.30;40.90;;;;;;457055;260;1364;-76
2021/05/14 09:24:11;;;;;;;;;;;21.20;40.70;;;;;;457224;260;1111;-76
2021/05/14 09:26:13;;;;;;;;;;;21.30;40.70;;;;;;457178;260;2187;-76
2021/05/14 09:28:13;;;;;;;;;;;21.30;40.60;;;;;;457213;256;1293;-75
2021/05/14 09:30:15;;;;;;;;;;;21.30;40.50;;;;;;457383;260;1096;-75
2021/05/14 09:32:16;;;;;;;;;;;21.40;40.40;;;;;;457155;260;1309;-75
2021/05/14 09:34:17;;;;;;;;;;;21.30;40.40;;;;;;457235;260;1071;-75
2021/05/14 09:36:21;;;;;;;;;;;21.30;40.40;;;;;;457159;260;1458;-75
2021/05/14 09:38:20;;;;;;;;;;;21.30;40.40;;;;;;457139;260;1408;-76
2021/05/14 09:40:21;;;;;;;;;;;21.30;40.40;;;;;;457164;260;1033;-76
2021/05/14 09:42:22;;;;;;;;;;;21.20;40.40;;;;;;457075;260;1086;-76
2021/05/14 09:44:24;;;;;;;;;;;21.20;40.50;;;;;;457248;260;1181;-76
2021/05/14 09:46:25;;;;;;;;;;;21.10;40.50;;;;;;457128;260;2190;-75
2021/05/14 09:48:26;;;;;;;;;;;21.10;40.60;;;;;;457051;260;1061;-76
2021/05/14 09:50:29;;;;;;;;;;;21.10;40.50;;;;;;457087;260;1454;-76
2021/05/14 09:52:29;;;;;;;;;;;21.10;40.50;;;;;;457086;260;1263;-76
2021/05/14 09:54:30;;;;;;;;;;;21.10;40.70;;;;;;457214;260;1066;-77
2021/05/14 09:56:33;;;;;;;;;;;21.10;40.80;;;;;;457174;260;1357;-76
2021/05/14 09:58:34;;;;;;;;;;;21.10;40.70;;;;;;457078;260;1433;-76
2021/05/14 10:00:34;;;;;;;;;;;21.10;40.60;;;;;;457087;260;1419;-76
2021/05/14 10:02:36;;;;;;;;;;;21.10;40.50;;;;;;457091;260;1213;-76
2021/05/14 10:04:39;;;;;;;;;;;21.10;40.40;;;;;;457287;260;1360;-76
2021/05/14 10:06:38;;;;;;;;;;;21.10;40.40;;;;;;456999;260;2190;-76
2021/05/14 10:08:39;;;;;;;;;;;21.20;40.20;;;;;;457118;260;1060;-76
2021/05/14 10:10:41;;;;;;;;;;;21.20;40.10;;;;;;457176;260;1133;-76
2021/05/14 10:12:42;;;;;;;;;;;21.30;39.90;;;;;;457116;260;1090;-76
2021/05/14 10:14:43;;;;;;;;;;;21.40;39.90;;;;;;457115;260;1180;-76
2021/05/14 10:16:44;;;;;;;;;;;21.30;39.90;;;;;;457132;260;1096;-76
2021/05/14 10:18:47;;;;;;;;;;;21.40;39.90;;;;;;457304;260;1027;-76
2021/05/14 10:20:47;;;;;;;;;;;21.20;40.00;;;;;;457330;260;1302;-76
2021/05/14 10:22:48;;;;;;;;;;;21.30;40.30;;;;;;457257;260;1067;-76
2021/05/14 10:24:51;;;;;;;;;;;21.20;40.40;;;;;;457219;260;1085;-76
2021/05/14 10:26:52;;;;;;;;;;;21.20;40.40;;;;;;457094;260;2213;-76
2021/05/14 10:28:53;;;;;;;;;;;21.30;40.40;;;;;;457272;260;1065;-76
2021/05/14 10:30:54;;;;;;;;;;;21.20;40.50;;;;;;457303;260;1183;-76
2021/05/14 10:32:55;;;;;;;;;;;21.30;40.60;;;;;;457118;260;1045;-76
2021/05/14 10:34:57;;;;;;;;;;;21.30;40.50;;;;;;457230;260;1094;-76
2021/05/14 10:36:58;;;;;;;;;;;21.30;40.60;;;;;;457119;260;1076;-76
2021/05/14 10:38:59;;;;;;;;;;;21.30;40.60;;;;;;457104;260;1270;-76
2021/05/14 10:41:01;;;;;;;;;;;21.30;40.50;;;;;;457158;260;1122;-76
2021/05/14 10:43:02;;;;;;;;;;;21.40;40.50;;;;;;457222;260;1104;-76
2021/05/14 10:45:03;;;;;;;;;;;21.50;40.30;;;;;;457286;260;1248;-76
2021/05/14 10:47:04;;;;;;;;;;;21.50;40.20;;;;;;457258;260;2159;-76
2021/05/14 10:49:06;;;;;;;;;;;21.40;40.30;;;;;;457202;260;1045;-76
2021/05/14 10:51:10;;;;;;;;;;;21.40;40.40;;;;;;457311;260;1559;-76
2021/05/14 10:53:08;;;;;;;;;;;21.30;40.40;;;;;;457110;260;1419;-76
2021/05/14 10:55:10;;;;;;;;;;;21.20;40.40;;;;;;457273;260;1063;-76
2021/05/14 10:57:11;;;;;;;;;;;21.20;40.60;;;;;;457184;260;1060;-76
2021/05/14 10:59:12;;;;;;;;;;;21.20;40.60;;;;;;457198;260;1140;-75
2021/05/14 11:01:13;;;;;;;;;;;21.10;40.60;;;;;;457142;260;1345;-76
2021/05/14 11:03:15;;;;;;;;;;;21.20;40.50;;;;;;457157;260;1111;-76
2021/05/14 11:05:16;;;;;;;;;;;21.10;40.60;;;;;;457142;260;1131;-76
2021/05/14 11:07:17;;;;;;;;;;;21.20;40.60;;;;;;457074;260;2194;-76
2021/05/14 11:09:19;;;;;;;;;;;21.30;40.50;;;;;;457171;260;1233;-76
2021/05/14 11:11:20;;;;;;;;;;;21.20;40.40;;;;;;457068;260;1271;-76
2021/05/14 11:13:21;;;;;;;;;;;21.20;40.40;;;;;;457337;260;1114;-76
2021/05/14 11:15:22;;;;;;;;;;;21.20;40.30;;;;;;457265;260;1191;-76
2021/05/14 11:17:24;;;;;;;;;;;21.20;40.20;;;;;;457261;260;1273;-76
2021/05/14 11:19:26;;;;;;;;;;;21.20;40.30;;;;;;457241;260;1044;-76
2021/05/14 11:21:26;;;;;;;;;;;21.20;40.20;;;;;;457160;260;1503;-76
2021/05/14 11:23:28;;;;;;;;;;;21.30;40.30;;;;;;457232;260;1219;-76
2021/05/14 11:25:29;;;;;;;;;;;21.20;40.10;;;;;;457208;260;1326;-76
2021/05/14 11:27:30;;;;;;;;;;;21.30;40.10;;;;;;457255;260;2210;-76
2021/05/14 11:29:32;;;;;;;;;;;21.30;40.10;;;;;;457199;260;1045;-76
2021/05/14 11:31:33;;;;;;;;;;;21.30;40.10;;;;;;457151;260;1310;-76
2021/05/14 11:33:34;;;;;;;;;;;21.30;40.20;;;;;;457113;260;1073;-76
2021/05/14 11:35:35;;;;;;;;;;;21.20;40.30;;;;;;457123;260;1077;-75
2021/05/14 11:37:37;;;;;;;;;;;21.30;40.10;;;;;;457129;260;1004;-75
2021/05/14 11:39:38;;;;;;;;;;;21.30;39.90;;;;;;457170;260;1190;-75
2021/05/14 11:41:39;;;;;;;;;;;21.40;39.60;;;;;;457155;260;1243;-75
2021/05/14 11:43:40;;;;;;;;;;;21.40;39.60;;;;;;457187;260;1085;-75
2021/05/14 11:45:42;;;;;;;;;;;21.40;39.50;;;;;;457178;260;1314;-75
2021/05/14 11:47:43;;;;;;;;;;;21.40;39.30;;;;;;457145;260;2136;-75
2021/05/14 11:49:44;;;;;;;;;;;21.40;39.30;;;;;;457173;260;1044;-75
2021/05/14 11:51:46;;;;;;;;;;;21.40;39.40;;;;;;457147;260;1127;-75
2021/05/14 11:53:47;;;;;;;;;;;21.40;39.30;;;;;;457105;260;1024;-75
2021/05/14 11:55:48;;;;;;;;;;;21.30;39.30;;;;;;457096;260;1211;-75
2021/05/14 11:57:49;;;;;;;;;;;21.40;39.30;;;;;;457190;260;1267;-75
2021/05/14 11:59:51;;;;;;;;;;;21.30;39.20;;;;;;457073;260;1070;-75